Olivehurst, California
Current Conditions -  °F | °C
As of 2:53 PM on Friday 31 Oct 2014 (Local Time) from KMYV Reporting Station
Light Rain Light Rain  
Wind Chill: 61°   Ceiling: 2800
Heat Index: 61°   Visibility: 9mi
Dew Point: 58°   Wind: 5mph
Humidity: 90%   Direction: 150°SSE
Pressure: 29.78"   Gusts: NA
Location:  39.1°N, 121.55°W
Report Text: KMYV 312153Z AUTO 15004KT 9SM -RA SCT019 BKN028 OVC095 16/14 A2978 RMK AO2 RAE17B36 SLP086 P0001 T01610144
Loading
Personal Weather Stations






























Interactive Weather Map
Tropical Storm Tracking
New forecast layout! Learn more

10-Day Weather Forecast

Advertisements
Track Severe Weather on mobile